Latest Weather Observations for Nambour

IDQ60801

Issued at 1:02 pm EST Friday 12 February 2016 (issued every 30 minutes, with the page automatically refreshed every 10 minutes)

About weather observations | Map of weather stations | Latest weather observations for QLD | Other Formats
Station Details ID: 040988 Name: NAMBOUR DAFF - HILLSIDE Lat: -26.64 Lon: 152.94 Height: 53.24 m
Data from the previous 72 hours. | See also: Recent months at Nambour
Date/Time
EST
Temp
°C
App
Temp
°C
Dew
Point
Rel
Hum
%
Delta-T
°C
Wind Press
QNH
hPa
Press
MSL
hPa
Rain
since 9 am
mm
Dir
 
Spd
km/h
Gust
km/h
Spd
kts
Gust
kts
12/01:00pm 27.7 27.2 17.8 54 6.3 ESE 17 32 9 17 1011.8 1011.5 0.0
12/12:30pm 26.2 25.9 18.3 61 5.0 ESE 17 33 9 18 1012.0 1011.7 0.0
12/12:00pm 25.9 27.1 19.1 66 4.4 E 11 24 6 13 1012.2 1011.9 0.0
12/11:30am 26.7 27.1 19.1 63 4.9 E 15 28 8 15 1012.3 1012.0 0.0
12/11:00am 24.7 25.2 18.4 68 4.0 E 13 26 7 14 1012.7 1012.4 0.0
12/10:30am 27.1 28.1 17.8 56 5.9 ESE 9 24 5 13 1012.7 1012.4 0.0
12/10:00am 26.8 26.8 17.3 56 6.0 ESE 13 22 7 12 1012.8 1012.5 0.0
12/09:30am 26.8 27.8 18.6 60 5.2 ESE 11 24 6 13 1012.8 1012.5 0.0
12/09:00am 26.0 27.7 18.4 63 4.8 ESE 7 19 4 10 1012.8 1012.5 0.2
12/08:30am 25.8 27.8 18.7 65 4.5 SE 6 15 3 8 1012.9 1012.6 0.2
12/08:00am 24.9 26.6 18.4 67 4.1 SE 7 15 4 8 1013.0 1012.7 0.2
12/07:30am 23.9 25.5 17.9 69 3.8 ESE 6 13 3 7 1013.0 1012.7 0.2
12/07:00am 23.1 24.8 18.0 73 3.2 SSE 6 17 3 9 1012.8 1012.5 0.2
12/06:30am 22.0 24.1 18.0 78 2.5 WNW 4 11 2 6 1012.5 1012.2 0.2
12/06:00am 21.6 23.7 18.0 80 2.2 WSW 4 9 2 5 1012.5 1012.2 0.2
12/05:30am 21.5 23.9 17.9 80 2.2 W 2 6 1 3 1012.3 1012.0 0.2
12/05:00am 21.3 23.3 17.9 81 2.1 W 4 9 2 5 1012.0 1011.7 0.2
12/04:30am 21.5 24.0 18.1 81 2.1 SSW 2 7 1 4 1011.9 1011.6 0.2
12/04:00am 21.4 24.2 18.0 81 2.1 CALM 0 4 0 2 1011.8 1011.5 0.2
12/03:30am 21.4 24.2 18.0 81 2.1 CALM 0 4 0 2 1011.8 1011.5 0.2
12/03:00am 21.3 24.1 17.9 81 2.1 CALM 0 0 0 0 1011.9 1011.6 0.2
12/02:30am 21.4 24.1 17.8 80 2.2 CALM 0 2 0 1 1012.1 1011.8 0.2
12/02:00am 21.6 24.5 18.2 81 2.1 CALM 0 4 0 2 1012.1 1011.8 0.2
12/01:30am 21.6 24.5 18.2 81 2.1 CALM 0 4 0 2 1012.3 1012.0 0.2
12/01:00am 21.6 24.4 18.0 80 2.2 CALM 0 2 0 1 1012.4 1012.1 0.2
12/12:30am 21.6 24.1 18.2 81 2.1 WSW 2 7 1 4 1012.5 1012.2 0.2
12/12:00am 21.6 23.7 18.2 81 2.1 WSW 4 7 2 4 1012.7 1012.4 0.2
 
Date/Time
EST
Temp
°C
App
Temp
°C
Dew
Point
Rel
Hum
%
Delta-T
°C
Wind Press
QNH
hPa
Press
MSL
hPa
Rain
since 9 am
mm
Dir
 
Spd
km/h
Gust
km/h
Spd
kts
Gust
kts
11/11:30pm 21.6 24.4 18.0 80 2.2 CALM 0 4 0 2 1012.9 1012.6 0.2
11/11:00pm 21.6 24.6 18.4 82 2.0 CALM 0 4 0 2 1013.1 1012.8 0.2
11/10:30pm 21.3 24.1 17.9 81 2.1 CALM 0 4 0 2 1013.2 1012.9 0.2
11/10:00pm 21.3 24.2 18.1 82 2.0 CALM 0 0 0 0 1013.5 1013.2 0.2
11/09:30pm 21.5 24.4 18.1 81 2.1 CALM 0 4 0 2 1013.5 1013.2 0.2
11/09:00pm 21.8 24.3 18.2 80 2.2 S 2 4 1 2 1013.5 1013.2 0.2
11/08:30pm 22.1 25.0 18.1 78 2.5 CALM 0 2 0 1 1013.4 1013.1 0.2
11/08:00pm 22.7 25.5 18.0 75 2.9 CALM 0 0 0 0 1013.3 1013.0 0.2
11/07:30pm 23.4 25.9 18.1 72 3.3 S 2 6 1 3 1013.2 1012.9 0.2
11/07:00pm 24.1 26.2 18.1 69 3.8 SE 4 9 2 5 1012.8 1012.5 0.2
11/06:30pm 24.5 26.0 17.7 66 4.3 SE 6 11 3 6 1012.6 1012.3 0.2
11/06:00pm 25.0 26.6 18.2 66 4.3 ESE 7 17 4 9 1012.2 1011.9 0.2
11/05:30pm 25.1 26.2 18.1 65 4.4 ESE 9 17 5 9 1011.9 1011.6 0.2
11/05:00pm 25.3 25.9 18.5 66 4.3 E 13 20 7 11 1011.6 1011.3 0.2
11/04:30pm 24.8 26.8 19.2 71 3.6 E 7 15 4 8 1011.3 1011.0 0.2
11/04:00pm 25.5 27.9 17.9 63 4.8 SSW 2 9 1 5 1011.4 1011.1 0.2
11/03:30pm 24.6 26.5 17.6 65 4.4 SSE 4 9 2 5 1011.4 1011.1 0.2
11/03:00pm 24.9 26.0 17.1 62 4.8 ESE 7 17 4 9 1011.6 1011.3 0.2
11/02:30pm 25.8 25.9 17.4 59 5.3 E 13 32 7 17 1011.8 1011.5 0.2
11/02:00pm 26.5 26.9 18.1 60 5.3 ESE 13 24 7 13 1011.6 1011.3 0.2
11/01:30pm 25.9 26.0 18.3 63 4.8 ESE 15 32 8 17 1011.7 1011.4 0.2
11/01:00pm 28.4 28.2 17.6 52 6.8 ESE 15 28 8 15 1011.6 1011.3 0.2
11/12:30pm 28.4 28.3 17.9 53 6.7 ESE 15 28 8 15 1011.9 1011.6 0.2
11/12:00pm 27.9 27.9 18.0 55 6.3 ESE 15 28 8 15 1012.3 1012.0 0.2
11/11:30am 28.2 28.8 17.7 53 6.7 ESE 11 22 6 12 1012.5 1012.2 0.2
11/11:00am 26.8 27.8 17.8 57 5.7 ESE 9 20 5 11 1012.7 1012.4 0.2
11/10:30am 26.4 28.2 18.8 63 4.9 SE 7 17 4 9 1012.8 1012.5 0.2
11/10:00am 26.1 27.8 18.5 63 4.8 ESE 7 15 4 8 1012.9 1012.6 0.2
11/09:30am 25.7 26.5 18.1 63 4.8 SE 11 20 6 11 1012.7 1012.4 0.2
11/09:00am 25.8 27.4 18.2 63 4.8 SE 7 17 4 9 1012.9 1012.6 0.4
11/08:30am 25.3 27.2 18.5 66 4.3 SE 6 11 3 6 1012.7 1012.4 0.4
11/08:00am 25.0 27.4 18.9 69 3.9 SSW 4 13 2 7 1012.7 1012.4 0.4
11/07:30am 24.1 26.4 18.5 71 3.5 SE 4 13 2 7 1012.7 1012.4 0.4
11/07:00am 22.9 25.1 18.4 76 2.8 SSW 4 7 2 4 1012.5 1012.2 0.4
11/06:30am 21.7 24.3 18.5 82 2.0 SW 2 6 1 3 1012.4 1012.1 0.4
11/06:00am 21.1 23.1 18.7 86 1.5 SW 6 15 3 8 1012.1 1011.8 0.4
11/05:30am 20.7 23.0 18.6 88 1.3 SW 4 11 2 6 1012.0 1011.7 0.4
11/05:00am 20.5 23.4 18.3 87 1.4 CALM 0 4 0 2 1011.9 1011.6 0.4
11/04:30am 20.9 24.0 18.7 87 1.4 CALM 0 2 0 1 1011.8 1011.5 0.4
11/04:00am 21.1 23.9 18.9 87 1.4 NE 2 4 1 2 1011.5 1011.2 0.4
11/03:30am 21.4 23.6 19.1 87 1.5 SW 6 9 3 5 1011.3 1011.0 0.4
11/03:00am 21.0 23.4 18.9 88 1.3 SW 4 7 2 4 1011.3 1011.0 0.4
11/02:30am 21.0 23.9 19.1 89 1.2 WSW 2 6 1 3 1011.4 1011.1 0.4
11/02:00am 21.1 24.2 19.4 90 1.1 SE 2 6 1 3 1011.7 1011.4 0.4
11/01:30am 20.9 24.2 19.2 90 1.1 CALM 0 2 0 1 1012.0 1011.7 0.4
11/01:00am 21.2 24.7 19.5 90 1.1 CALM 0 0 0 0 1012.3 1012.0 0.4
11/12:30am 21.2 24.7 19.5 90 1.1 CALM 0 0 0 0 1012.6 1012.3 0.4
11/12:00am 21.3 24.6 19.2 88 1.3 CALM 0 2 0 1 1012.8 1012.5 0.4
 
Date/Time
EST
Temp
°C
App
Temp
°C
Dew
Point
Rel
Hum
%
Delta-T
°C
Wind Press
QNH
hPa
Press
MSL
hPa
Rain
since 9 am
mm
Dir
 
Spd
km/h
Gust
km/h
Spd
kts
Gust
kts
10/11:30pm 21.6 24.7 19.5 88 1.3 W 2 6 1 3 1013.2 1012.9 0.4
10/11:00pm 21.7 25.2 19.6 88 1.3 CALM 0 4 0 2 1013.5 1013.2 0.4
10/10:30pm 21.8 24.7 19.0 84 1.8 WSW 2 6 1 3 1013.7 1013.4 0.4
10/10:00pm 22.0 25.0 18.4 80 2.3 CALM 0 2 0 1 1013.7 1013.4 0.2
10/09:30pm 22.7 25.1 18.7 78 2.5 E 4 6 2 3 1013.5 1013.2 0.2
10/09:00pm 22.9 25.5 18.4 76 2.8 WSW 2 6 1 3 1013.6 1013.3 0.2
10/08:30pm 23.1 25.6 18.2 74 3.1 SW 2 6 1 3 1013.5 1013.2 0.2
10/08:00pm 23.3 26.2 18.2 73 3.2 CALM 0 0 0 0 1013.4 1013.1 0.2
10/07:30pm 23.7 26.5 17.9 70 3.6 CALM 0 4 0 2 1013.2 1012.9 0.2
10/07:00pm 23.8 26.0 17.5 68 3.9 ESE 2 6 1 3 1012.9 1012.6 0.2
10/06:30pm 24.6 25.8 17.3 64 4.5 ESE 7 17 4 9 1012.7 1012.4 0.2
10/06:00pm 25.1 26.3 17.3 62 4.9 ESE 7 13 4 7 1012.4 1012.1 0.2
10/05:30pm 25.5 26.3 17.4 61 5.1 ESE 9 17 5 9 1012.1 1011.8 0.2
10/05:00pm 25.1 27.0 18.5 67 4.2 E 6 11 3 6 1012.0 1011.7 0.2
10/04:30pm 25.0 26.8 18.7 68 4.0 SE 7 13 4 7 1011.8 1011.5 0.2
10/04:00pm 24.9 26.6 18.4 67 4.1 ESE 7 19 4 10 1011.7 1011.4 0.2
10/03:30pm 25.2 25.6 18.2 65 4.4 ESE 13 26 7 14 1011.6 1011.3 0.2
10/03:00pm 27.2 27.9 17.1 54 6.3 ESE 9 17 5 9 1011.3 1011.0 0.2
10/02:30pm 27.4 29.1 18.4 58 5.8 ESE 7 17 4 9 1011.4 1011.1 0.2
10/02:00pm 27.0 28.1 18.0 58 5.7 ESE 9 19 5 10 1011.9 1011.6 0.2
10/01:30pm 28.4 29.7 18.5 55 6.4 ESE 9 22 5 12 1011.9 1011.6 0.2
10/01:00pm 27.3 27.4 16.6 52 6.7 E 11 22 6 12 1012.2 1011.9 0.2
10/12:30pm 27.3 28.1 17.2 54 6.3 SE 9 20 5 11 1012.3 1012.0 0.2
10/12:00pm 27.6 29.1 18.0 55 6.1 SE 7 22 4 12 1012.6 1012.3 0.2
10/11:30am 27.3 28.5 18.3 58 5.7 SE 9 19 5 10 1012.8 1012.5 0.2
10/11:00am 26.0 27.4 17.4 59 5.4 SE 6 11 3 6 1013.2 1012.9 0.2
10/10:30am 26.2 27.0 17.3 58 5.6 ESE 9 22 5 12 1013.3 1013.0 0.2
10/10:00am 26.1 27.3 18.2 61 5.0 SE 9 19 5 10 1013.4 1013.1 0.2
10/09:30am 24.8 26.0 17.3 63 4.7 ESE 7 22 4 12 1013.7 1013.4 0.2
10/09:00am 25.0 26.1 17.0 61 5.0 ESE 7 19 4 10 1013.6 1013.3 1.0
10/08:30am 25.2 27.1 17.7 63 4.7 ENE 4 9 2 5 1013.5 1013.2 1.0
10/08:00am 23.3 24.4 16.6 66 4.1 ESE 6 15 3 8 1013.4 1013.1 1.0
10/07:30am 22.9 24.3 16.4 67 4.0 ESE 4 9 2 5 1013.1 1012.8 1.0
10/07:00am 22.7 24.2 16.7 69 3.7 SSW 4 9 2 5 1012.8 1012.5 1.0
10/06:30am 22.3 23.6 16.1 68 3.8 WSW 4 7 2 4 1012.7 1012.4 1.0
10/06:00am 22.1 23.5 16.4 70 3.5 WNW 4 9 2 5 1012.6 1012.3 1.0
10/05:30am 21.9 23.3 16.4 71 3.3 WSW 4 9 2 5 1012.2 1011.9 1.0
10/05:00am 22.0 23.5 16.7 72 3.2 SW 4 9 2 5 1012.1 1011.8 1.0
10/04:30am 22.0 23.7 17.2 74 3.0 SW 4 11 2 6 1011.9 1011.6 1.0
10/04:00am 21.7 23.8 17.1 75 2.8 SW 2 9 1 5 1011.8 1011.5 1.0
10/03:30am 21.8 23.9 17.2 75 2.8 NW 2 6 1 3 1011.8 1011.5 1.0
10/03:00am 21.5 22.7 16.9 75 2.8 SE 6 15 3 8 1011.8 1011.5 1.0
10/02:30am 21.1 23.0 16.7 76 2.7 W 2 6 1 3 1011.9 1011.6 1.0
10/02:00am 21.3 22.9 16.9 76 2.7 W 4 13 2 7 1012.3 1012.0 1.0
10/01:30am 21.2 22.8 16.8 76 2.7 W 4 7 2 4 1012.7 1012.4 1.0
10/01:00am 20.8 22.4 17.0 79 2.3 NNW 4 6 2 3 1013.1 1012.8 1.0
10/12:30am 19.9 22.2 16.7 82 1.9 CALM 0 4 0 2 1013.6 1013.3 1.0
10/12:00am 20.2 22.2 17.0 82 1.9 W 2 6 1 3 1013.9 1013.6 1.0
 
Date/Time
EST
Temp
°C
App
Temp
°C
Dew
Point
Rel
Hum
%
Delta-T
°C
Wind Press
QNH
hPa
Press
MSL
hPa
Rain
since 9 am
mm
Dir
 
Spd
km/h
Gust
km/h
Spd
kts
Gust
kts
09/11:30pm 20.4 22.7 17.8 85 1.6 WSW 2 6 1 3 1014.3 1014.0 1.0
09/11:00pm 20.6 22.7 18.2 86 1.5 WSW 4 13 2 7 1014.7 1014.4 1.0
09/10:30pm 20.9 23.4 19.0 89 1.2 SW 4 11 2 6 1015.2 1014.9 1.0
09/10:00pm 20.9 23.6 18.7 87 1.4 SSE 2 7 1 4 1015.7 1015.4 0.4
09/09:30pm 21.7 23.2 17.5 77 2.6 ESE 6 11 3 6 1015.9 1015.6 0.0
09/09:00pm 23.2 25.1 16.7 67 4.0 E 2 6 1 3 1015.7 1015.4 0.0
09/08:30pm 23.2 24.6 16.3 65 4.2 E 4 9 2 5 1015.5 1015.2 0.0
09/08:00pm 23.7 24.6 16.2 63 4.6 E 6 17 3 9 1015.5 1015.2 0.0
09/07:30pm 23.4 24.3 16.2 64 4.4 ESE 6 13 3 7 1015.4 1015.1 0.0
09/07:00pm 23.9 24.5 15.9 61 4.9 ESE 7 17 4 9 1015.1 1014.8 0.0
09/06:30pm 24.5 25.2 15.7 58 5.3 ESE 6 15 3 8 1014.7 1014.4 0.0
09/06:00pm 25.1 25.8 16.0 57 5.6 ESE 7 22 4 12 1014.4 1014.1 0.0
09/05:30pm 25.6 25.5 15.0 52 6.4 ESE 9 19 5 10 1014.0 1013.7 0.0
09/05:00pm 25.8 25.7 14.9 51 6.6 ESE 9 20 5 11 1013.9 1013.6 0.0
09/04:30pm 26.0 25.5 14.8 50 6.7 ESE 11 26 6 14 1013.9 1013.6 0.0
09/04:00pm 26.6 25.7 13.7 45 7.6 E 11 26 6 14 1013.8 1013.5 0.0
09/03:30pm 27.2 27.1 15.9 50 6.9 ESE 11 22 6 12 1013.8 1013.5 0.0
09/03:00pm 27.9 26.4 14.2 43 8.2 ESE 15 35 8 19 1013.8 1013.5 0.0
09/02:30pm 28.0 26.8 13.9 42 8.4 ESE 13 28 7 15 1013.9 1013.6 0.0
09/02:00pm 27.7 26.2 14.3 43 8.0 ESE 15 24 8 13 1014.0 1013.7 0.0
09/01:30pm 27.4 26.7 15.4 48 7.3 ESE 13 24 7 13 1014.3 1014.0 0.0

Other Formats:

Comma delimited format used in spreadsheet applications
http://www.bom.gov.au/fwo/IDQ60801/IDQ60801.95572.axf

JavaScript Object Notation format (JSON) in row-major order
http://www.bom.gov.au/fwo/IDQ60801/IDQ60801.95572.json